Time;durP1;ratioP1;P1;durP2;ratioP2;P2;SDS_P1;SDS_P2;PMS_P1;PMS_P2;Temp;Humidity;BMP_temperature;BMP_pressure;BME280_temperature;BME280_humidity;BME280_pressure;Samples;Min_cycle;Max_cycle;Signal;HPM_P1;HPM_P2
2024/02/26 00:01:34;;;;;;;3.93;2.37;;;7.90;99.90;;;;;;804885;177;26484;-82
2024/02/26 00:04:02;;;;;;;2.50;2.20;;;7.90;99.90;;;;;;803058;176;26449;-82
2024/02/26 00:06:26;;;;;;;4.37;2.40;;;7.90;99.90;;;;;;802068;178;26575;-82
2024/02/26 00:08:53;;;;;;;6.73;2.50;;;7.90;99.90;;;;;;793677;176;26459;-82
2024/02/26 00:11:20;;;;;;;4.43;2.57;;;7.80;99.90;;;;;;807043;175;26463;-82
2024/02/26 00:13:47;;;;;;;3.33;2.60;;;7.80;99.90;;;;;;814271;176;26499;-83
2024/02/26 00:16:14;;;;;;;3.90;2.30;;;7.80;99.90;;;;;;798723;176;26449;-83
2024/02/26 00:18:40;;;;;;;5.23;2.30;;;7.70;99.90;;;;;;807910;176;26446;-82
2024/02/26 00:21:07;;;;;;;2.60;2.30;;;7.70;99.90;;;;;;811731;175;26462;-82
2024/02/26 00:23:33;;;;;;;9.37;2.30;;;7.60;99.90;;;;;;814844;175;26450;-82
2024/02/26 00:26:00;;;;;;;2.83;1.93;;;7.70;99.90;;;;;;814963;175;26972;-82
2024/02/26 00:28:29;;;;;;;3.90;2.30;;;7.70;99.90;;;;;;815226;175;26450;-81
2024/02/26 00:30:55;;;;;;;5.50;2.63;;;7.70;99.90;;;;;;809215;177;26448;-80
2024/02/26 00:33:20;;;;;;;3.67;2.23;;;7.70;99.90;;;;;;808950;175;26447;-81
2024/02/26 00:35:47;;;;;;;4.53;2.17;;;7.70;99.90;;;;;;805988;176;27177;-83
2024/02/26 00:38:13;;;;;;;2.60;2.30;;;7.70;99.90;;;;;;809757;176;26446;-82
2024/02/26 00:40:40;;;;;;;2.80;2.10;;;7.70;99.90;;;;;;809934;177;26506;-81
2024/02/26 00:43:07;;;;;;;2.87;1.80;;;7.70;99.90;;;;;;809568;175;26440;-82
2024/02/26 00:45:33;;;;;;;3.03;2.40;;;7.70;99.90;;;;;;812718;176;26429;-82
2024/02/26 00:48:04;;;;;;;4.33;2.80;;;7.70;99.90;;;;;;811148;176;26424;-82
2024/02/26 00:50:28;;;;;;;3.40;2.10;;;7.70;99.90;;;;;;808570;176;26461;-82
2024/02/26 00:52:55;;;;;;;6.23;2.50;;;7.70;99.90;;;;;;815066;176;27312;-82
2024/02/26 00:55:21;;;;;;;4.27;2.53;;;7.70;99.90;;;;;;813034;177;26478;-82
2024/02/26 00:57:48;;;;;;;2.53;2.20;;;7.60;99.90;;;;;;813411;176;26960;-83
2024/02/26 01:00:15;;;;;;;2.37;1.90;;;7.70;99.90;;;;;;814436;176;26437;-82
2024/02/26 01:02:42;;;;;;;5.77;4.00;;;7.60;99.90;;;;;;812479;176;26464;-83
2024/02/26 01:05:09;;;;;;;5.60;3.17;;;7.60;99.90;;;;;;796637;180;26476;-83
2024/02/26 01:07:36;;;;;;;3.50;2.30;;;7.60;99.90;;;;;;788174;181;26675;-82
2024/02/26 01:10:02;;;;;;;2.20;2.00;;;7.60;99.90;;;;;;805602;178;26446;-83
2024/02/26 01:12:29;;;;;;;4.63;2.43;;;7.50;99.90;;;;;;812306;176;26428;-82
2024/02/26 01:14:56;;;;;;;2.77;2.20;;;7.50;99.90;;;;;;817276;176;26444;-82
2024/02/26 01:17:22;;;;;;;4.60;2.00;;;7.50;99.90;;;;;;811362;176;26510;-82
2024/02/26 01:19:49;;;;;;;3.27;2.50;;;7.40;99.90;;;;;;811503;175;26444;-82
2024/02/26 01:22:15;;;;;;;3.37;2.40;;;7.40;99.90;;;;;;815094;176;26457;-82
2024/02/26 01:24:42;;;;;;;2.97;2.27;;;7.40;99.90;;;;;;812735;176;26445;-82
2024/02/26 01:27:09;;;;;;;3.97;2.27;;;7.40;99.90;;;;;;811842;175;26465;-82
2024/02/26 01:29:36;;;;;;;2.77;2.10;;;7.40;99.90;;;;;;804562;177;26451;-82
2024/02/26 01:32:04;;;;;;;4.43;2.60;;;7.40;99.90;;;;;;806732;177;28117;-83
2024/02/26 01:34:29;;;;;;;2.30;2.07;;;7.40;99.90;;;;;;809764;176;26448;-81
2024/02/26 01:36:56;;;;;;;6.27;2.03;;;7.40;99.90;;;;;;810915;176;26424;-81
2024/02/26 01:39:23;;;;;;;3.80;2.00;;;7.40;99.90;;;;;;814033;176;26442;-81
2024/02/26 01:41:49;;;;;;;2.93;1.90;;;7.40;99.90;;;;;;808175;177;26970;-81
2024/02/26 01:44:16;;;;;;;4.00;1.90;;;7.30;99.90;;;;;;812017;176;26986;-80
2024/02/26 01:46:42;;;;;;;4.77;2.30;;;7.30;99.90;;;;;;810686;177;26437;-80
2024/02/26 01:49:09;;;;;;;4.73;2.07;;;7.30;99.90;;;;;;812219;175;26452;-81
2024/02/26 01:51:36;;;;;;;3.23;2.10;;;7.30;99.90;;;;;;811271;176;26432;-81
2024/02/26 01:54:02;;;;;;;3.47;2.20;;;7.30;99.90;;;;;;795607;178;26467;-81
2024/02/26 01:56:31;;;;;;;3.70;2.23;;;7.30;99.90;;;;;;787136;180;26504;-81
2024/02/26 01:58:56;;;;;;;2.40;2.10;;;7.30;99.90;;;;;;787658;179;26505;-82
2024/02/26 02:01:23;;;;;;;2.33;2.13;;;7.30;99.90;;;;;;789174;179;26486;-81
2024/02/26 02:03:50;;;;;;;2.60;1.90;;;7.20;99.90;;;;;;811198;176;26461;-81
2024/02/26 02:06:17;;;;;;;3.53;2.30;;;7.20;99.90;;;;;;797447;180;27048;-81
2024/02/26 02:08:43;;;;;;;1.87;1.70;;;7.20;99.90;;;;;;792908;180;26472;-82
2024/02/26 02:11:11;;;;;;;3.23;2.00;;;7.20;99.90;;;;;;811572;176;26453;-80
2024/02/26 02:13:38;;;;;;;2.23;1.73;;;7.20;99.90;;;;;;797343;177;26473;-81
2024/02/26 02:16:05;;;;;;;2.30;1.97;;;7.10;99.90;;;;;;790811;180;26467;-82
2024/02/26 02:18:31;;;;;;;2.57;1.80;;;7.10;99.90;;;;;;802347;177;26455;-82
2024/02/26 02:20:59;;;;;;;3.97;2.20;;;7.20;99.90;;;;;;805471;177;26487;-82
2024/02/26 02:23:24;;;;;;;2.40;2.20;;;7.20;99.90;;;;;;810762;176;26443;-82
2024/02/26 02:25:51;;;;;;;2.30;1.90;;;7.20;99.90;;;;;;811615;176;26428;-81
2024/02/26 02:28:18;;;;;;;2.60;2.03;;;7.20;99.90;;;;;;794789;180;26468;-81
2024/02/26 02:30:44;;;;;;;2.20;2.00;;;7.20;99.90;;;;;;794008;178;26556;-80
2024/02/26 02:33:12;;;;;;;1.90;1.80;;;7.20;99.90;;;;;;810234;175;26434;-82
2024/02/26 02:35:37;;;;;;;2.77;1.90;;;7.20;99.90;;;;;;799392;177;26508;-82
2024/02/26 02:38:05;;;;;;;2.80;2.00;;;7.20;99.90;;;;;;795330;179;26511;-80
2024/02/26 02:40:31;;;;;;;2.40;2.00;;;7.20;99.90;;;;;;805310;175;26458;-81
2024/02/26 02:42:59;;;;;;;2.63;2.00;;;7.20;99.90;;;;;;810828;176;26436;-80
2024/02/26 02:45:25;;;;;;;1.97;1.77;;;7.20;99.90;;;;;;816856;176;26472;-80
2024/02/26 02:47:52;;;;;;;2.10;1.70;;;7.20;99.90;;;;;;808954;176;26532;-80
2024/02/26 02:50:19;;;;;;;3.10;2.03;;;7.20;99.90;;;;;;810668;176;27003;-79
2024/02/26 02:52:47;;;;;;;3.50;2.20;;;7.20;99.90;;;;;;812061;176;27073;-80
2024/02/26 02:55:13;;;;;;;2.17;1.97;;;7.20;99.90;;;;;;812536;176;26451;-79
2024/02/26 02:57:41;;;;;;;5.07;1.90;;;7.10;99.90;;;;;;815456;176;27303;-80
2024/02/26 03:00:09;;;;;;;2.17;1.97;;;7.10;99.90;;;;;;815850;176;26445;-81
2024/02/26 03:02:36;;;;;;;2.50;2.20;;;7.10;99.90;;;;;;806595;176;26455;-82
2024/02/26 03:05:04;;;;;;;2.57;2.10;;;7.10;99.90;;;;;;807957;176;26977;-82
2024/02/26 03:07:31;;;;;;;3.03;1.87;;;7.10;99.90;;;;;;796944;177;26487;-81
2024/02/26 03:09:58;;;;;;;2.90;2.07;;;7.10;99.90;;;;;;795910;179;26480;-79
2024/02/26 03:12:24;;;;;;;3.10;1.77;;;7.10;99.90;;;;;;800038;176;26464;-81
2024/02/26 03:14:51;;;;;;;2.53;1.97;;;7.10;99.90;;;;;;791902;179;26463;-82
2024/02/26 03:17:17;;;;;;;2.27;1.80;;;7.10;99.90;;;;;;790820;179;27047;-81
2024/02/26 03:19:49;;;;;;;2.60;2.00;;;7.10;99.90;;;;;;801887;176;26473;-81
2024/02/26 03:22:14;;;;;;;3.60;2.03;;;7.20;99.90;;;;;;804750;176;26464;-80
2024/02/26 03:24:40;;;;;;;3.03;2.10;;;7.10;99.90;;;;;;813068;176;26466;-80
2024/02/26 03:27:09;;;;;;;2.17;1.97;;;7.10;99.90;;;;;;815493;176;26481;-81
2024/02/26 03:29:33;;;;;;;2.33;2.07;;;7.10;99.90;;;;;;807612;177;26500;-80
2024/02/26 03:32:00;;;;;;;5.77;2.00;;;7.10;99.90;;;;;;806524;177;26453;-80
2024/02/26 03:34:27;;;;;;;4.40;1.83;;;7.10;99.90;;;;;;812670;176;26459;-80
2024/02/26 03:36:53;;;;;;;2.57;1.80;;;7.10;99.90;;;;;;811359;177;26498;-81
2024/02/26 03:39:20;;;;;;;2.97;2.10;;;7.10;99.90;;;;;;812490;176;26440;-81
2024/02/26 03:41:46;;;;;;;2.10;1.90;;;7.00;99.90;;;;;;811618;174;26440;-81
2024/02/26 03:44:13;;;;;;;3.63;2.00;;;7.10;99.90;;;;;;810973;175;26458;-81
2024/02/26 03:46:42;;;;;;;2.43;1.70;;;7.00;99.90;;;;;;811717;175;26445;-80
2024/02/26 03:49:07;;;;;;;3.37;2.00;;;7.10;99.90;;;;;;814450;175;26445;-82
2024/02/26 03:51:34;;;;;;;2.87;1.97;;;7.10;99.90;;;;;;811010;176;26450;-82
2024/02/26 03:54:00;;;;;;;2.73;2.33;;;7.00;99.90;;;;;;812648;175;26472;-81
2024/02/26 03:56:27;;;;;;;3.00;2.10;;;7.00;99.90;;;;;;814373;176;26550;-80
2024/02/26 03:58:53;;;;;;;2.27;1.83;;;7.00;99.90;;;;;;794569;179;26477;-80
2024/02/26 04:01:20;;;;;;;2.27;2.07;;;7.00;99.90;;;;;;789269;179;26508;-81
2024/02/26 04:03:47;;;;;;;2.77;1.80;;;7.00;99.90;;;;;;806543;176;26457;-81
2024/02/26 04:06:14;;;;;;;2.60;2.10;;;6.90;99.90;;;;;;811325;176;26449;-81
2024/02/26 04:08:41;;;;;;;2.73;2.27;;;7.00;99.90;;;;;;810284;175;26530;-81
2024/02/26 04:11:08;;;;;;;4.40;2.00;;;7.00;99.90;;;;;;789539;180;26479;-81
2024/02/26 04:13:35;;;;;;;4.27;2.10;;;7.00;99.90;;;;;;799724;179;26497;-82
2024/02/26 04:16:02;;;;;;;2.63;2.20;;;7.00;99.90;;;;;;805692;176;27053;-82
2024/02/26 04:18:28;;;;;;;2.60;2.10;;;6.90;99.90;;;;;;789934;179;26506;-81
2024/02/26 04:20:55;;;;;;;2.83;2.23;;;7.00;99.90;;;;;;793581;179;26496;-83
2024/02/26 04:23:21;;;;;;;3.03;2.07;;;6.90;99.90;;;;;;802611;176;26799;-82
2024/02/26 04:25:48;;;;;;;3.50;2.13;;;7.00;99.90;;;;;;812418;177;26429;-82
2024/02/26 04:28:14;;;;;;;4.43;2.53;;;7.00;99.90;;;;;;808581;177;26494;-81
2024/02/26 04:30:41;;;;;;;3.00;2.53;;;6.90;99.90;;;;;;816754;176;26440;-81
2024/02/26 04:33:08;;;;;;;4.90;2.60;;;6.90;99.90;;;;;;797932;179;26504;-81
2024/02/26 04:35:35;;;;;;;5.27;2.47;;;6.90;99.90;;;;;;790843;180;26479;-81
2024/02/26 04:38:01;;;;;;;5.10;2.70;;;6.90;99.90;;;;;;809692;176;26465;-81
2024/02/26 04:40:28;;;;;;;3.33;2.63;;;6.90;99.90;;;;;;797761;178;27676;-80
2024/02/26 04:42:54;;;;;;;3.13;2.23;;;6.90;99.90;;;;;;793879;180;26488;-82
2024/02/26 04:45:21;;;;;;;4.83;2.90;;;6.90;99.90;;;;;;805239;176;26455;-81
2024/02/26 04:47:48;;;;;;;9.70;5.63;;;6.80;99.90;;;;;;811406;177;26513;-82
2024/02/26 04:50:14;;;;;;;6.10;4.00;;;6.90;99.90;;;;;;813421;176;26447;-82
2024/02/26 04:52:41;;;;;;;4.47;2.40;;;6.90;99.90;;;;;;801537;179;26483;-81
2024/02/26 04:55:08;;;;;;;3.90;2.23;;;6.90;99.90;;;;;;795744;179;26483;-82
2024/02/26 04:57:34;;;;;;;3.80;2.60;;;6.90;99.90;;;;;;793975;179;27003;-82
2024/02/26 05:00:01;;;;;;;3.47;2.30;;;6.90;99.90;;;;;;816549;175;26493;-82
2024/02/26 05:02:30;;;;;;;3.53;2.70;;;6.80;99.90;;;;;;815403;175;26553;-81
2024/02/26 05:04:54;;;;;;;4.67;2.53;;;6.80;99.90;;;;;;806518;176;26446;-82
2024/02/26 05:07:21;;;;;;;4.90;2.77;;;6.80;99.90;;;;;;809244;176;26462;-81
2024/02/26 05:09:49;;;;;;;3.60;2.50;;;6.80;99.90;;;;;;808415;176;26435;-82
2024/02/26 05:12:15;;;;;;;3.83;2.70;;;6.80;99.90;;;;;;815583;175;26486;-81
2024/02/26 05:14:42;;;;;;;5.40;3.03;;;6.80;99.90;;;;;;805767;177;26449;-81
2024/02/26 05:17:08;;;;;;;4.77;2.87;;;6.90;99.90;;;;;;815195;176;26439;-82
2024/02/26 05:19:35;;;;;;;6.67;2.67;;;6.80;99.90;;;;;;811265;176;26458;-82
2024/02/26 05:22:01;;;;;;;2.80;2.40;;;6.80;99.90;;;;;;817573;176;26446;-81
2024/02/26 05:24:28;;;;;;;9.70;2.93;;;6.80;99.90;;;;;;814053;176;26435;-81
2024/02/26 05:26:55;;;;;;;5.13;2.77;;;6.80;99.90;;;;;;807899;176;26541;-81
2024/02/26 05:29:21;;;;;;;7.57;3.13;;;6.80;99.90;;;;;;813807;176;26431;-83
2024/02/26 05:31:48;;;;;;;3.67;2.80;;;6.80;99.90;;;;;;811676;176;26463;-81
2024/02/26 05:34:15;;;;;;;5.73;2.90;;;6.70;99.90;;;;;;809737;176;26439;-82
2024/02/26 05:36:42;;;;;;;5.60;3.10;;;6.70;99.90;;;;;;814555;176;26426;-83
2024/02/26 05:39:11;;;;;;;5.73;2.80;;;6.70;99.90;;;;;;811757;176;26454;-87
2024/02/26 05:41:35;;;;;;;4.40;3.40;;;6.70;99.90;;;;;;805649;176;26455;-83
2024/02/26 05:44:02;;;;;;;4.33;2.77;;;6.70;99.90;;;;;;809962;176;26470;-82
2024/02/26 05:46:28;;;;;;;5.67;3.27;;;6.70;99.90;;;;;;811541;176;26607;-83
2024/02/26 05:48:55;;;;;;;5.17;3.07;;;6.60;99.90;;;;;;808592;176;26455;-82
2024/02/26 05:51:22;;;;;;;5.07;3.50;;;6.70;99.90;;;;;;815744;176;26510;-81
2024/02/26 05:53:53;;;;;;;4.57;3.10;;;6.60;99.90;;;;;;794727;180;26527;-81
2024/02/26 05:56:15;;;;;;;4.73;2.80;;;6.70;99.90;;;;;;791858;179;27513;-80
2024/02/26 05:58:41;;;;;;;4.37;2.73;;;6.60;99.90;;;;;;817241;176;26460;-80
2024/02/26 06:01:09;;;;;;;4.77;3.07;;;6.70;99.90;;;;;;813369;176;27003;-81
2024/02/26 06:03:35;;;;;;;4.20;3.10;;;6.60;99.90;;;;;;807667;177;26474;-81
2024/02/26 06:06:02;;;;;;;3.90;3.20;;;6.60;99.90;;;;;;807339;176;26454;-81
2024/02/26 06:08:29;;;;;;;4.17;3.27;;;6.60;99.90;;;;;;807746;176;26462;-81
2024/02/26 06:10:56;;;;;;;9.97;4.20;;;6.70;99.90;;;;;;810906;176;26452;-81
2024/02/26 06:13:22;;;;;;;4.63;3.10;;;6.70;99.90;;;;;;811805;175;26510;-79
2024/02/26 06:15:49;;;;;;;4.97;3.43;;;6.60;99.90;;;;;;805082;177;26482;-81
2024/02/26 06:18:16;;;;;;;4.57;3.83;;;6.60;99.90;;;;;;808011;176;26452;-79
2024/02/26 06:20:42;;;;;;;5.13;3.80;;;6.70;99.90;;;;;;808674;176;26479;-81
2024/02/26 06:23:09;;;;;;;5.40;4.00;;;6.70;99.90;;;;;;811028;177;27092;-80
2024/02/26 06:25:35;;;;;;;6.87;4.20;;;6.70;99.90;;;;;;806509;177;26453;-81
2024/02/26 06:28:02;;;;;;;4.90;3.83;;;6.70;99.90;;;;;;809096;177;26469;-80
2024/02/26 06:30:28;;;;;;;5.67;3.97;;;6.70;99.90;;;;;;808240;176;26463;-79
2024/02/26 06:32:55;;;;;;;7.30;4.13;;;6.80;99.90;;;;;;805680;177;26448;-81
2024/02/26 06:35:22;;;;;;;6.50;4.30;;;6.80;99.90;;;;;;808894;176;26488;-79
2024/02/26 06:37:52;;;;;;;8.67;3.80;;;6.70;99.90;;;;;;805786;176;26470;-80
2024/02/26 06:40:15;;;;;;;7.50;3.73;;;6.70;99.90;;;;;;809619;176;26503;-79
2024/02/26 06:42:43;;;;;;;6.07;3.57;;;6.70;99.90;;;;;;807006;177;26477;-80
2024/02/26 06:45:09;;;;;;;6.13;3.83;;;6.70;99.90;;;;;;805407;177;26467;-79
2024/02/26 06:47:37;;;;;;;6.07;4.10;;;6.70;99.90;;;;;;807926;177;26463;-80
2024/02/26 06:50:03;;;;;;;7.27;4.60;;;6.70;99.90;;;;;;817216;176;26447;-80
2024/02/26 06:52:30;;;;;;;7.63;5.23;;;6.70;99.90;;;;;;811802;176;26462;-81
2024/02/26 06:54:57;;;;;;;5.70;3.70;;;6.70;99.90;;;;;;806453;177;26437;-79
2024/02/26 06:57:25;;;;;;;5.03;4.00;;;6.70;99.90;;;;;;815227;176;27018;-80
2024/02/26 06:59:52;;;;;;;6.50;4.10;;;6.70;99.90;;;;;;805717;177;26581;-81
2024/02/26 07:02:18;;;;;;;5.67;3.83;;;6.70;99.90;;;;;;807001;177;26446;-80
2024/02/26 07:04:45;;;;;;;8.10;4.63;;;6.70;99.90;;;;;;811825;171;27033;-79
2024/02/26 07:07:11;;;;;;;5.80;4.80;;;6.70;99.90;;;;;;816548;174;26565;-79
2024/02/26 07:09:38;;;;;;;5.13;4.20;;;6.70;99.90;;;;;;816217;174;26439;-78
2024/02/26 07:12:05;;;;;;;7.13;4.13;;;6.70;99.90;;;;;;818795;175;26416;-79
2024/02/26 07:14:32;;;;;;;5.30;4.10;;;6.70;99.90;;;;;;819976;173;26348;-80
2024/02/26 07:16:59;;;;;;;5.40;4.00;;;6.70;99.90;;;;;;818841;172;26720;-78
2024/02/26 07:19:25;;;;;;;5.20;4.10;;;6.70;99.90;;;;;;829207;173;26948;-79
2024/02/26 07:21:52;;;;;;;5.33;4.13;;;6.70;99.90;;;;;;828665;172;26427;-80
2024/02/26 07:24:18;;;;;;;7.80;4.37;;;6.70;99.90;;;;;;828979;173;26751;-80
2024/02/26 07:26:45;;;;;;;5.97;4.80;;;6.70;99.90;;;;;;823679;172;26480;-80
2024/02/26 07:29:12;;;;;;;5.87;4.40;;;6.70;99.90;;;;;;827242;173;26468;-80
2024/02/26 07:31:38;;;;;;;5.03;4.10;;;6.70;99.90;;;;;;824333;173;26427;-81
2024/02/26 07:34:05;;;;;;;4.60;3.80;;;6.70;99.90;;;;;;821225;174;26461;-80
2024/02/26 07:36:32;;;;;;;5.80;3.97;;;6.70;99.90;;;;;;820029;173;26417;-80
2024/02/26 07:38:58;;;;;;;6.97;4.30;;;6.70;99.90;;;;;;817537;173;26997;-81
2024/02/26 07:41:25;;;;;;;5.67;4.23;;;6.70;99.90;;;;;;809487;174;26585;-80
2024/02/26 07:43:52;;;;;;;6.60;4.07;;;6.70;99.90;;;;;;820478;173;26435;-80
2024/02/26 07:46:19;;;;;;;6.50;5.40;;;6.70;99.90;;;;;;830485;173;26431;-77
2024/02/26 07:48:46;;;;;;;7.73;5.00;;;6.70;99.90;;;;;;820971;173;26425;-80
2024/02/26 07:51:14;;;;;;;4.47;3.70;;;6.70;99.90;;;;;;819928;173;26428;-79
2024/02/26 07:53:39;;;;;;;5.50;3.87;;;6.70;99.90;;;;;;823988;173;26544;-81
2024/02/26 07:56:06;;;;;;;5.87;4.07;;;6.70;99.90;;;;;;813956;173;26478;-79
2024/02/26 07:58:33;;;;;;;9.30;4.50;;;6.70;99.90;;;;;;825585;173;26417;-80
2024/02/26 08:00:59;;;;;;;10.57;5.63;;;6.70;99.90;;;;;;819771;173;26413;-80
2024/02/26 08:03:27;;;;;;;6.93;3.90;;;6.70;99.90;;;;;;827859;173;26433;-80
2024/02/26 08:05:53;;;;;;;7.57;3.87;;;6.70;99.90;;;;;;826140;173;26429;-79
2024/02/26 08:08:20;;;;;;;7.90;3.97;;;6.80;99.90;;;;;;818910;173;26491;-80
2024/02/26 08:10:47;;;;;;;5.13;4.10;;;6.70;99.90;;;;;;825175;173;26425;-79
2024/02/26 08:13:14;;;;;;;6.23;4.00;;;6.70;99.90;;;;;;817220;173;27005;-80
2024/02/26 08:15:41;;;;;;;6.83;4.33;;;6.70;99.90;;;;;;820789;174;26579;-80
2024/02/26 08:18:07;;;;;;;6.07;4.20;;;6.70;99.90;;;;;;823205;173;26435;-79
2024/02/26 08:20:34;;;;;;;8.97;4.20;;;6.70;99.90;;;;;;822107;173;26436;-79
2024/02/26 08:23:00;;;;;;;6.10;4.43;;;6.80;99.90;;;;;;820229;173;28047;-80
2024/02/26 08:25:27;;;;;;;7.93;5.20;;;6.80;99.90;;;;;;813092;174;26454;-80
2024/02/26 08:27:53;;;;;;;5.87;4.03;;;6.80;99.90;;;;;;820167;173;26419;-79
2024/02/26 08:30:20;;;;;;;4.90;3.73;;;6.80;99.90;;;;;;825082;172;26425;-79
2024/02/26 08:32:46;;;;;;;6.13;3.70;;;6.80;99.90;;;;;;824813;172;26416;-81
2024/02/26 08:35:13;;;;;;;8.07;5.13;;;6.80;99.90;;;;;;825375;173;26469;-79
2024/02/26 08:37:40;;;;;;;8.17;5.23;;;6.80;99.90;;;;;;826682;172;27010;-82
2024/02/26 08:40:07;;;;;;;6.67;4.63;;;6.80;99.90;;;;;;816713;173;26459;-81
2024/02/26 08:42:34;;;;;;;6.40;4.10;;;6.80;99.90;;;;;;827179;173;26474;-79
2024/02/26 08:45:01;;;;;;;5.83;3.67;;;6.80;99.90;;;;;;822397;173;26420;-80
2024/02/26 08:47:28;;;;;;;8.17;4.50;;;6.80;99.90;;;;;;824106;173;26443;-79
2024/02/26 08:49:53;;;;;;;5.27;4.20;;;6.90;99.90;;;;;;823425;173;26454;-79
2024/02/26 08:52:21;;;;;;;8.43;4.77;;;6.80;99.90;;;;;;819819;173;26432;-81
2024/02/26 08:54:47;;;;;;;5.37;3.70;;;6.90;99.90;;;;;;821717;173;26446;-80
2024/02/26 08:57:15;;;;;;;8.00;4.60;;;6.80;99.90;;;;;;818319;173;26539;-79
2024/02/26 08:59:41;;;;;;;7.30;5.03;;;6.80;99.90;;;;;;821113;173;26459;-80
2024/02/26 09:02:09;;;;;;;12.23;6.47;;;6.90;99.90;;;;;;824023;173;26555;-80
2024/02/26 09:15:58;;;;;;;9.47;5.40;;;7.00;99.90;;;;;;784366;170;26514;-82
2024/02/26 09:18:24;;;;;;;7.90;4.90;;;7.00;99.90;;;;;;791902;180;26488;-86
2024/02/26 09:20:51;;;;;;;9.70;5.03;;;6.90;99.90;;;;;;778685;183;26513;-86
2024/02/26 09:23:17;;;;;;;6.23;4.30;;;6.90;99.90;;;;;;771887;186;26842;-84
2024/02/26 09:25:44;;;;;;;8.17;4.57;;;6.90;99.90;;;;;;786190;183;26537;-83
2024/02/26 09:28:11;;;;;;;8.47;4.50;;;6.90;99.90;;;;;;786218;182;27023;-83
2024/02/26 09:30:38;;;;;;;12.63;5.00;;;6.90;99.90;;;;;;769840;187;26512;-85
2024/02/26 09:33:04;;;;;;;8.53;5.13;;;6.90;99.90;;;;;;769595;186;26516;-83
2024/02/26 09:35:31;;;;;;;7.90;4.50;;;6.90;99.90;;;;;;769632;183;26537;-84
2024/02/26 09:37:57;;;;;;;5.07;4.40;;;6.90;99.90;;;;;;769723;187;26542;-83
2024/02/26 09:40:24;;;;;;;9.87;4.90;;;6.80;99.90;;;;;;770821;184;26532;-84
2024/02/26 09:42:51;;;;;;;7.33;4.30;;;6.80;99.90;;;;;;771874;186;26525;-81
2024/02/26 09:45:18;;;;;;;7.30;4.67;;;6.80;99.90;;;;;;770659;186;26672;-83
2024/02/26 09:47:45;;;;;;;8.07;4.73;;;6.90;99.90;;;;;;770974;186;26512;-87
2024/02/26 09:50:13;;;;;;;9.63;5.17;;;6.90;99.90;;;;;;770485;186;26702;-86
2024/02/26 09:52:38;;;;;;;12.43;4.90;;;6.90;99.90;;;;;;770480;186;26512;-82
2024/02/26 09:55:05;;;;;;;9.20;5.00;;;6.90;99.90;;;;;;770488;186;26516;-84
2024/02/26 09:57:32;;;;;;;6.80;4.40;;;6.90;99.90;;;;;;770620;175;26528;-85
2024/02/26 10:00:03;;;;;;;7.80;4.87;;;6.90;99.90;;;;;;770137;187;26533;-85
2024/02/26 10:02:26;;;;;;;9.13;5.17;;;6.90;99.90;;;;;;769825;187;26731;-85
2024/02/26 10:04:55;;;;;;;7.03;5.40;;;7.00;99.90;;;;;;770176;187;27077;-85
2024/02/26 10:07:20;;;;;;;7.37;5.10;;;7.00;99.90;;;;;;769785;187;26598;-86
2024/02/26 10:09:46;;;;;;;8.47;4.63;;;7.00;99.90;;;;;;770008;187;26506;-85
2024/02/26 10:12:13;;;;;;;5.93;4.20;;;7.00;99.90;;;;;;770024;186;26501;-83
2024/02/26 10:14:39;;;;;;;5.67;3.90;;;7.00;99.90;;;;;;770116;187;26601;-84
2024/02/26 10:17:08;;;;;;;5.43;3.80;;;7.00;99.90;;;;;;769884;187;26545;-83
2024/02/26 10:19:35;;;;;;;6.27;4.80;;;7.00;99.90;;;;;;776393;183;26638;-83
2024/02/26 10:22:03;;;;;;;9.73;4.80;;;7.00;99.90;;;;;;769820;186;26524;-83
2024/02/26 10:24:28;;;;;;;7.90;4.67;;;7.00;99.90;;;;;;769534;187;26566;-82
2024/02/26 10:26:54;;;;;;;9.93;4.97;;;7.10;99.90;;;;;;769408;187;27031;-84
2024/02/26 10:29:21;;;;;;;7.93;4.37;;;7.20;99.90;;;;;;769686;187;26517;-82
2024/02/26 10:31:48;;;;;;;7.67;4.90;;;7.20;99.90;;;;;;769524;187;26527;-83
2024/02/26 10:34:15;;;;;;;11.07;4.90;;;7.30;99.90;;;;;;769688;182;26632;-85
2024/02/26 10:36:42;;;;;;;5.77;4.20;;;7.30;99.90;;;;;;784125;183;26552;-84
2024/02/26 10:39:08;;;;;;;7.87;5.20;;;7.40;99.90;;;;;;784507;183;26514;-83
2024/02/26 10:41:35;;;;;;;6.40;4.60;;;7.50;99.90;;;;;;769703;183;26543;-83
2024/02/26 10:44:03;;;;;;;6.80;4.83;;;7.60;99.90;;;;;;784272;180;26652;-81
2024/02/26 10:46:29;;;;;;;8.47;5.63;;;7.60;99.90;;;;;;784764;180;26478;-82
2024/02/26 10:48:56;;;;;;;9.90;6.30;;;7.80;99.90;;;;;;769926;183;26517;-85
2024/02/26 10:51:27;;;;;;;12.67;6.63;;;7.80;99.90;;;;;;770117;184;26660;-84
2024/02/26 10:53:58;;;;;;;9.73;5.30;;;7.90;99.90;;;;;;772338;186;26539;-82
2024/02/26 10:56:27;;;;;;;11.30;6.97;;;7.90;99.90;;;;;;771353;186;26569;-84
2024/02/26 10:58:52;;;;;;;9.30;5.77;;;7.90;99.90;;;;;;770908;186;26546;-84
2024/02/26 11:01:20;;;;;;;8.10;5.97;;;8.00;99.90;;;;;;770951;186;26511;-84
2024/02/26 11:03:45;;;;;;;9.73;5.50;;;8.00;99.90;;;;;;761874;186;27690;-84
2024/02/26 11:06:12;;;;;;;10.67;5.50;;;8.00;99.90;;;;;;780666;181;26472;-81
2024/02/26 11:08:39;;;;;;;8.90;6.00;;;8.00;99.90;;;;;;793617;181;26492;-83
2024/02/26 11:11:05;;;;;;;10.17;6.47;;;8.00;99.90;;;;;;793782;180;26463;-81
2024/02/26 11:13:32;;;;;;;7.07;5.40;;;8.10;99.90;;;;;;783956;181;26449;-82
2024/02/26 11:15:59;;;;;;;9.83;5.60;;;8.20;99.90;;;;;;761780;187;26514;-82
2024/02/26 11:18:25;;;;;;;10.20;6.17;;;8.20;99.90;;;;;;788019;176;26643;-81
2024/02/26 11:20:54;;;;;;;8.73;5.33;;;8.30;99.90;;;;;;787523;181;26507;-82
2024/02/26 11:23:18;;;;;;;8.03;5.43;;;8.30;99.90;;;;;;789090;181;26529;-83
2024/02/26 11:25:45;;;;;;;7.30;4.40;;;8.20;99.90;;;;;;783141;181;27488;-84
2024/02/26 11:28:13;;;;;;;9.50;6.20;;;8.20;99.90;;;;;;777829;183;27087;-83
2024/02/26 11:30:40;;;;;;;9.60;5.97;;;8.20;99.90;;;;;;780434;179;26474;-83
2024/02/26 11:33:07;;;;;;;10.37;5.60;;;8.30;99.90;;;;;;763201;186;26515;-83
2024/02/26 11:35:33;;;;;;;10.73;5.60;;;8.30;99.90;;;;;;785503;180;26476;-83
2024/02/26 11:38:01;;;;;;;8.80;4.80;;;8.30;99.90;;;;;;799130;180;27105;-84
2024/02/26 11:40:27;;;;;;;10.27;5.57;;;8.20;99.90;;;;;;793992;180;26456;-83
2024/02/26 11:42:54;;;;;;;9.63;5.77;;;8.30;99.90;;;;;;786756;180;27655;-83
2024/02/26 11:45:32;;;;;;;9.33;5.43;;;8.30;99.90;;;;;;755296;190;26523;-82
2024/02/26 11:47:59;;;;;;;10.43;6.97;;;8.40;99.90;;;;;;776252;183;27113;-82
2024/02/26 11:50:35;;;;;;;9.07;5.70;;;8.30;99.90;;;;;;795624;179;26463;-83
2024/02/26 11:53:13;;;;;;;7.17;4.90;;;8.30;99.90;;;;;;790506;180;26491;-83
2024/02/26 11:55:40;;;;;;;9.83;5.53;;;8.20;99.90;;;;;;788081;181;26502;-83
2024/02/26 11:58:06;;;;;;;10.30;5.80;;;8.10;99.90;;;;;;785296;182;27122;-82
2024/02/26 12:00:34;;;;;;;11.17;6.33;;;8.20;99.90;;;;;;783556;183;26489;-83
2024/02/26 12:03:02;;;;;;;12.30;7.23;;;8.20;99.90;;;;;;783648;181;26448;-83
2024/02/26 12:05:29;;;;;;;8.17;5.90;;;8.40;99.90;;;;;;760492;186;26769;-83
2024/02/26 12:07:54;;;;;;;6.83;4.87;;;8.40;99.90;;;;;;787201;182;27836;-82
2024/02/26 12:10:26;;;;;;;8.60;5.93;;;8.50;99.90;;;;;;792243;179;27096;-82
2024/02/26 12:12:54;;;;;;;9.60;5.80;;;8.50;99.90;;;;;;795411;180;26466;-82
2024/02/26 12:15:21;;;;;;;8.03;5.40;;;8.40;99.90;;;;;;793431;180;26464;-84
2024/02/26 12:17:47;;;;;;;8.83;5.57;;;8.50;99.90;;;;;;788969;181;26498;-84
2024/02/26 12:20:14;;;;;;;9.70;5.37;;;8.50;99.90;;;;;;785415;182;26476;-83
2024/02/26 12:22:41;;;;;;;12.60;6.70;;;8.60;99.90;;;;;;784563;182;26485;-82
2024/02/26 12:25:09;;;;;;;9.70;6.63;;;8.60;99.90;;;;;;766659;187;26516;-83
2024/02/26 12:27:36;;;;;;;9.37;5.77;;;8.70;99.90;;;;;;787116;181;26487;-83
2024/02/26 12:30:03;;;;;;;7.87;5.63;;;8.50;99.90;;;;;;784454;177;26502;-84
2024/02/26 12:32:29;;;;;;;12.53;7.00;;;8.40;99.90;;;;;;764014;187;26509;-84
2024/02/26 12:34:56;;;;;;;12.10;6.17;;;8.40;99.90;;;;;;782046;180;26475;-85
2024/02/26 12:37:23;;;;;;;13.27;8.50;;;8.40;99.90;;;;;;769383;186;26533;-85
2024/02/26 12:39:50;;;;;;;11.53;7.30;;;8.50;99.90;;;;;;786855;181;26477;-84
2024/02/26 12:42:17;;;;;;;12.57;7.10;;;8.40;99.90;;;;;;765216;186;27090;-84
2024/02/26 12:44:44;;;;;;;15.93;9.13;;;8.40;99.90;;;;;;786969;181;27130;-84
2024/02/26 12:47:16;;;;;;;12.53;7.90;;;8.30;99.90;;;;;;758325;184;26560;-84
2024/02/26 12:49:37;;;;;;;11.90;6.37;;;8.30;99.90;;;;;;793201;181;26468;-83
2024/02/26 12:52:04;;;;;;;17.00;7.40;;;8.30;99.90;;;;;;760926;186;26512;-83
2024/02/26 12:54:31;;;;;;;10.30;6.80;;;8.30;99.90;;;;;;782350;181;26533;-84
2024/02/26 12:56:58;;;;;;;11.77;7.67;;;8.30;99.90;;;;;;761971;185;27064;-84
2024/02/26 12:59:24;;;;;;;11.10;7.60;;;8.30;99.90;;;;;;783224;179;26494;-83
2024/02/26 13:01:51;;;;;;;7.97;6.43;;;8.50;99.90;;;;;;784391;182;26973;-82
2024/02/26 13:04:17;;;;;;;11.60;7.70;;;8.40;99.90;;;;;;759220;184;26557;-82